Time;durP1;ratioP1;P1;durP2;ratioP2;P2;SDS_P1;SDS_P2;PMS_P1;PMS_P2;Temp;Humidity;BMP_temperature;BMP_pressure;BME280_temperature;BME280_humidity;BME280_pressure;Samples;Min_cycle;Max_cycle;Signal;HPM_P1;HPM_P2
2023/03/28 00:02:19;;;;;;;1.55;1.05;;;;;;;;;;10369379;28;20026;-53
2023/03/28 00:07:20;;;;;;;2.22;0.65;;;;;;;;;;10356649;28;20028;-49
2023/03/28 00:12:21;;;;;;;1.65;0.98;;;;;;;;;;10364112;28;20037;-49
2023/03/28 00:17:22;;;;;;;2.90;1.30;;;;;;;;;;10400623;28;20040;-52
2023/03/28 00:22:22;;;;;;;1.33;0.80;;;;;;;;;;10371272;28;20029;-52
2023/03/28 00:27:24;;;;;;;2.28;0.90;;;;;;;;;;10395072;28;20034;-57
2023/03/28 00:32:25;;;;;;;1.40;0.80;;;;;;;;;;10375126;28;20156;-59
2023/03/28 00:37:26;;;;;;;1.58;0.95;;;;;;;;;;10395611;28;20531;-58
2023/03/28 00:42:27;;;;;;;1.75;0.80;;;;;;;;;;10379619;28;20061;-59
2023/03/28 00:47:44;;;;;;;0.70;0.70;;;;;;;;;;10379017;28;20117;-60
2023/03/28 00:53:01;;;;;;;0.98;0.88;;;;;;;;;;10387984;28;20071;-58
2023/03/28 00:58:06;;;;;;;0.85;0.85;;;;;;;;;;10374781;28;20177;-60
2023/03/28 01:03:12;;;;;;;0.85;0.85;;;;;;;;;;10385424;28;20037;-58
2023/03/28 01:08:20;;;;;;;3.75;0.77;;;;;;;;;;10374978;28;20061;-60
2023/03/28 01:13:28;;;;;;;1.07;0.83;;;;;;;;;;10355458;28;20356;-59
2023/03/28 01:18:33;;;;;;;1.25;0.80;;;;;;;;;;10376973;28;20030;-60
2023/03/28 01:23:52;;;;;;;2.20;0.90;;;;;;;;;;10374650;28;20033;-60
2023/03/28 01:29:29;;;;;;;0.75;0.75;;;;;;;;;;10391718;28;20425;-59
2023/03/28 01:34:44;;;;;;;1.80;0.80;;;;;;;;;;10356887;28;20069;-57
2023/03/28 01:40:26;;;;;;;0.95;0.52;;;;;;;;;;10390037;28;20036;-58
2023/03/28 01:46:11;;;;;;;0.68;0.68;;;;;;;;;;10357760;28;20044;-59
2023/03/28 01:51:46;;;;;;;3.22;0.70;;;;;;;;;;10374991;28;20037;-57
2023/03/28 01:57:09;;;;;;;1.10;0.80;;;;;;;;;;10373030;28;20637;-55
2023/03/28 02:02:21;;;;;;;0.70;0.70;;;;;;;;;;10347951;28;20145;-59
2023/03/28 02:07:23;;;;;;;1.67;0.93;;;;;;;;;;10375523;28;20041;-57
2023/03/28 02:12:36;;;;;;;0.57;0.57;;;;;;;;;;10368932;28;20026;-58
2023/03/28 02:17:47;;;;;;;1.00;0.90;;;;;;;;;;10370764;28;20074;-58
2023/03/28 02:22:57;;;;;;;0.82;0.73;;;;;;;;;;10393062;28;20136;-58
2023/03/28 02:28:04;;;;;;;1.23;0.90;;;;;;;;;;10362724;28;20445;-59
2023/03/28 02:33:27;;;;;;;0.95;0.85;;;;;;;;;;10369066;28;20405;-58
2023/03/28 02:39:18;;;;;;;0.90;0.90;;;;;;;;;;10399539;28;20057;-58
2023/03/28 02:45:06;;;;;;;0.70;0.70;;;;;;;;;;10372603;28;20025;-60
2023/03/28 02:50:52;;;;;;;1.20;0.70;;;;;;;;;;10378760;28;20039;-51
2023/03/28 02:56:21;;;;;;;0.60;0.60;;;;;;;;;;10372364;28;20152;-52
2023/03/28 03:01:28;;;;;;;1.42;0.70;;;;;;;;;;10359483;28;20029;-52
2023/03/28 03:06:29;;;;;;;0.73;0.70;;;;;;;;;;10390339;28;20426;-52
2023/03/28 03:11:30;;;;;;;0.90;0.70;;;;;;;;;;10384874;28;20026;-53
2023/03/28 03:16:31;;;;;;;1.02;0.80;;;;;;;;;;10372573;28;20374;-50
2023/03/28 03:21:32;;;;;;;1.67;0.70;;;;;;;;;;10387950;28;20045;-53
2023/03/28 03:26:32;;;;;;;0.80;0.80;;;;;;;;;;10367255;28;20139;-52
2023/03/28 03:31:33;;;;;;;0.70;0.70;;;;;;;;;;10378433;28;20029;-53
2023/03/28 03:36:34;;;;;;;0.70;0.70;;;;;;;;;;10365705;28;20088;-52
2023/03/28 03:41:34;;;;;;;0.75;0.70;;;;;;;;;;10389000;28;20496;-53
2023/03/28 03:46:35;;;;;;;0.63;0.63;;;;;;;;;;10381023;28;20470;-52
2023/03/28 03:51:36;;;;;;;1.67;0.73;;;;;;;;;;10378269;28;20041;-52
2023/03/28 03:56:36;;;;;;;1.17;0.70;;;;;;;;;;10385810;28;20029;-53
2023/03/28 04:01:38;;;;;;;1.75;0.80;;;;;;;;;;10396245;28;20026;-56
2023/03/28 04:06:39;;;;;;;0.80;0.80;;;;;;;;;;10379966;28;20057;-54
2023/03/28 04:11:39;;;;;;;0.50;0.50;;;;;;;;;;10400370;28;20017;-52
2023/03/28 04:16:40;;;;;;;0.52;0.52;;;;;;;;;;10373508;28;20033;-53
2023/03/28 04:21:41;;;;;;;0.70;0.70;;;;;;;;;;10375014;28;20037;-52
2023/03/28 04:26:44;;;;;;;0.68;0.68;;;;;;;;;;10374799;28;20018;-53
2023/03/28 04:31:54;;;;;;;0.73;0.73;;;;;;;;;;10390973;28;20037;-51
2023/03/28 04:37:00;;;;;;;0.73;0.73;;;;;;;;;;10394723;28;20041;-50
2023/03/28 04:42:04;;;;;;;0.60;0.60;;;;;;;;;;10361321;28;20056;-57
2023/03/28 04:47:07;;;;;;;1.13;0.80;;;;;;;;;;10381343;28;20106;-51
2023/03/28 04:52:08;;;;;;;0.75;0.70;;;;;;;;;;10356586;28;20076;-52
2023/03/28 04:57:08;;;;;;;0.70;0.68;;;;;;;;;;10366493;28;20030;-50
2023/03/28 05:02:09;;;;;;;2.70;0.90;;;;;;;;;;10390569;28;20040;-53
2023/03/28 05:07:10;;;;;;;0.70;0.60;;;;;;;;;;10365268;28;20062;-52
2023/03/28 05:12:10;;;;;;;1.20;0.90;;;;;;;;;;10359945;28;20125;-53
2023/03/28 05:17:11;;;;;;;0.55;0.55;;;;;;;;;;10374016;28;20042;-52
2023/03/28 05:22:12;;;;;;;0.75;0.70;;;;;;;;;;10387128;28;20041;-49
2023/03/28 05:27:12;;;;;;;1.05;0.93;;;;;;;;;;10383387;28;20029;-50
2023/03/28 05:32:13;;;;;;;1.35;0.60;;;;;;;;;;10392129;28;20028;-51
2023/03/28 05:37:13;;;;;;;1.15;0.70;;;;;;;;;;10388088;28;20033;-53
2023/03/28 05:42:15;;;;;;;0.68;0.68;;;;;;;;;;10380118;28;20026;-52
2023/03/28 05:47:16;;;;;;;0.70;0.70;;;;;;;;;;10374363;28;20029;-51
2023/03/28 05:52:17;;;;;;;0.70;0.70;;;;;;;;;;10374501;28;20038;-53
2023/03/28 05:57:18;;;;;;;0.77;0.70;;;;;;;;;;10388847;28;20029;-51
2023/03/28 06:02:21;;;;;;;0.70;0.70;;;;;;;;;;10378259;28;20026;-53
2023/03/28 06:07:22;;;;;;;0.80;0.80;;;;;;;;;;10394794;28;20049;-55
2023/03/28 06:12:25;;;;;;;4.82;0.95;;;;;;;;;;10389711;28;20105;-52
2023/03/28 06:17:25;;;;;;;2.05;0.90;;;;;;;;;;10402368;28;20040;-51
2023/03/28 06:22:26;;;;;;;2.25;1.10;;;;;;;;;;10388712;28;20033;-53
2023/03/28 06:27:27;;;;;;;6.28;1.27;;;;;;;;;;10381895;28;20164;-58
2023/03/28 06:32:27;;;;;;;13.07;1.30;;;;;;;;;;10377623;28;20029;-59
2023/03/28 06:37:28;;;;;;;6.10;1.10;;;;;;;;;;10392983;28;20401;-52
2023/03/28 06:42:28;;;;;;;4.20;1.10;;;;;;;;;;10400079;28;20148;-53
2023/03/28 06:47:29;;;;;;;5.22;0.95;;;;;;;;;;10373343;28;20029;-55
2023/03/28 06:52:30;;;;;;;8.45;1.33;;;;;;;;;;10383211;28;20053;-55
2023/03/28 06:57:30;;;;;;;12.05;1.08;;;;;;;;;;10372376;28;20030;-58
2023/03/28 07:02:31;;;;;;;3.70;1.20;;;;;;;;;;10388755;28;20509;-57
2023/03/28 07:07:31;;;;;;;3.15;1.00;;;;;;;;;;10394715;28;20488;-57
2023/03/28 07:12:32;;;;;;;6.43;1.00;;;;;;;;;;10394405;28;20030;-56
2023/03/28 07:17:32;;;;;;;6.28;1.20;;;;;;;;;;10406867;28;20152;-58
2023/03/28 07:22:33;;;;;;;2.42;1.15;;;;;;;;;;10405088;28;20022;-52
2023/03/28 07:27:33;;;;;;;5.22;1.10;;;;;;;;;;10384631;28;20140;-50
2023/03/28 07:32:35;;;;;;;5.70;1.00;;;;;;;;;;10404560;28;20037;-51
2023/03/28 07:37:35;;;;;;;1.33;0.95;;;;;;;;;;10392957;28;20036;-50
2023/03/28 07:42:36;;;;;;;1.08;0.98;;;;;;;;;;10380260;28;20026;-52
2023/03/28 07:47:37;;;;;;;4.70;1.42;;;;;;;;;;10380011;28;20204;-52
2023/03/28 07:52:44;;;;;;;2.83;1.00;;;;;;;;;;10403070;28;20049;-50
2023/03/28 07:57:45;;;;;;;1.52;1.00;;;;;;;;;;10387170;28;20083;-51
2023/03/28 08:02:45;;;;;;;1.25;1.00;;;;;;;;;;10403921;28;20079;-50
2023/03/28 08:07:46;;;;;;;2.53;1.17;;;;;;;;;;10404739;28;20026;-51
2023/03/28 08:12:46;;;;;;;2.97;1.33;;;;;;;;;;10381151;28;20485;-52
2023/03/28 08:17:47;;;;;;;2.65;1.00;;;;;;;;;;10406326;28;20509;-53
2023/03/28 08:22:48;;;;;;;1.85;1.10;;;;;;;;;;10379502;28;20060;-52
2023/03/28 08:27:48;;;;;;;1.20;0.95;;;;;;;;;;10404312;28;20087;-52
2023/03/28 08:32:50;;;;;;;1.08;0.95;;;;;;;;;;10404270;28;20096;-53
2023/03/28 08:37:51;;;;;;;2.65;1.15;;;;;;;;;;10391532;28;20033;-52
2023/03/28 08:43:23;;;;;;;1.30;0.93;;;;;;;;;;10405262;28;20339;-52
2023/03/28 08:48:45;;;;;;;1.85;1.13;;;;;;;;;;10384171;28;20042;-53
2023/03/28 08:54:18;;;;;;;4.03;1.00;;;;;;;;;;10358694;28;20048;-52
2023/03/28 08:59:29;;;;;;;1.90;1.05;;;;;;;;;;10379485;28;20056;-50
2023/03/28 09:04:34;;;;;;;1.00;1.00;;;;;;;;;;10393017;28;20731;-49
2023/03/28 09:10:35;;;;;;;1.30;1.20;;;;;;;;;;10400589;28;20088;-51
2023/03/28 09:15:48;;;;;;;2.17;1.10;;;;;;;;;;10399996;28;20056;-52
2023/03/28 09:21:12;;;;;;;1.20;1.10;;;;;;;;;;10391269;28;20026;-51
2023/03/28 09:26:22;;;;;;;1.98;1.00;;;;;;;;;;10384492;28;20140;-51
2023/03/28 09:31:30;;;;;;;1.35;1.13;;;;;;;;;;10383408;28;20026;-51
2023/03/28 09:36:36;;;;;;;1.50;0.90;;;;;;;;;;10372794;28;20038;-52
2023/03/28 09:42:16;;;;;;;3.75;1.00;;;;;;;;;;10385983;28;20247;-51
2023/03/28 09:47:16;;;;;;;2.15;0.90;;;;;;;;;;10358040;28;20056;-57
2023/03/28 09:52:20;;;;;;;2.90;1.30;;;;;;;;;;10394200;28;20052;-52
2023/03/28 09:57:20;;;;;;;1.02;1.00;;;;;;;;;;10388593;28;20478;-51
2023/03/28 10:02:29;;;;;;;1.33;1.00;;;;;;;;;;10380364;28;20038;-56
2023/03/28 10:07:57;;;;;;;1.20;1.08;;;;;;;;;;10395697;28;20061;-52
2023/03/28 10:13:02;;;;;;;2.97;1.35;;;;;;;;;;10352482;28;20401;-49
2023/03/28 10:18:04;;;;;;;1.48;1.10;;;;;;;;;;10364257;28;20038;-48
2023/03/28 10:23:05;;;;;;;1.30;1.20;;;;;;;;;;10381446;28;20026;-47
2023/03/28 10:28:12;;;;;;;3.60;1.83;;;;;;;;;;10393765;28;20030;-50
2023/03/28 10:33:24;;;;;;;2.45;1.30;;;;;;;;;;10375439;28;20112;-54
2023/03/28 10:38:51;;;;;;;2.35;1.40;;;;;;;;;;10394528;28;20029;-52
2023/03/28 10:43:53;;;;;;;1.85;1.05;;;;;;;;;;10399177;28;20061;-49
2023/03/28 10:49:12;;;;;;;1.45;1.27;;;;;;;;;;10390706;28;20029;-51
2023/03/28 10:54:45;;;;;;;1.88;1.30;;;;;;;;;;10365305;28;20045;-49
2023/03/28 11:00:02;;;;;;;3.30;1.60;;;;;;;;;;10377312;28;20037;-50
2023/03/28 11:05:28;;;;;;;6.40;1.40;;;;;;;;;;10348583;28;20121;-53
2023/03/28 11:10:52;;;;;;;11.70;1.20;;;;;;;;;;10371223;28;20108;-53
2023/03/28 11:16:20;;;;;;;2.30;1.27;;;;;;;;;;10371928;28;20029;-58
2023/03/28 11:21:30;;;;;;;2.20;1.27;;;;;;;;;;10397775;28;20033;-56
2023/03/28 11:26:50;;;;;;;3.42;1.17;;;;;;;;;;10360068;28;20068;-53
2023/03/28 11:32:12;;;;;;;4.75;1.20;;;;;;;;;;10356545;28;20029;-54
2023/03/28 11:37:24;;;;;;;5.60;1.20;;;;;;;;;;10359336;28;20033;-55
2023/03/28 11:42:40;;;;;;;5.45;1.23;;;;;;;;;;10349020;28;20485;-54
2023/03/28 11:47:50;;;;;;;1.50;1.27;;;;;;;;;;10346060;28;20030;-52
2023/03/28 11:52:58;;;;;;;1.77;1.10;;;;;;;;;;10358676;28;20038;-55
2023/03/28 11:58:03;;;;;;;2.40;1.40;;;;;;;;;;10362941;28;20053;-51
2023/03/28 12:03:28;;;;;;;4.75;1.30;;;;;;;;;;10361239;28;20040;-58
2023/03/28 12:08:56;;;;;;;2.00;1.00;;;;;;;;;;10386003;28;20176;-57
2023/03/28 12:14:10;;;;;;;2.30;1.15;;;;;;;;;;10378817;28;20278;-51
2023/03/28 12:19:16;;;;;;;4.03;1.17;;;;;;;;;;10374666;28;20197;-50
2023/03/28 12:24:48;;;;;;;1.27;1.05;;;;;;;;;;10386364;28;20029;-53
2023/03/28 12:29:58;;;;;;;2.10;1.10;;;;;;;;;;10370124;28;20022;-53
2023/03/28 12:35:21;;;;;;;2.05;1.17;;;;;;;;;;10392243;28;20484;-56
2023/03/28 12:40:44;;;;;;;1.63;1.10;;;;;;;;;;10377273;28;20038;-53
2023/03/28 12:45:52;;;;;;;2.80;1.20;;;;;;;;;;10400610;28;20033;-53
2023/03/28 12:51:11;;;;;;;3.97;1.20;;;;;;;;;;10390955;28;20638;-55
2023/03/28 12:56:14;;;;;;;3.17;1.20;;;;;;;;;;10393490;28;20037;-56
2023/03/28 13:01:47;;;;;;;1.50;1.10;;;;;;;;;;10409772;28;20033;-50
2023/03/28 13:07:37;;;;;;;2.33;1.10;;;;;;;;;;10393993;28;20053;-55
2023/03/28 13:13:05;;;;;;;1.88;1.33;;;;;;;;;;10403867;28;20493;-55
2023/03/28 13:18:26;;;;;;;3.10;1.33;;;;;;;;;;10374343;28;20103;-52
2023/03/28 13:23:32;;;;;;;3.35;1.40;;;;;;;;;;10404315;28;20405;-50
2023/03/28 13:28:47;;;;;;;4.13;0.90;;;;;;;;;;10411004;28;20080;-52
2023/03/28 13:34:00;;;;;;;1.45;0.95;;;;;;;;;;10390027;28;20037;-53
2023/03/28 13:39:06;;;;;;;3.20;1.40;;;;;;;;;;10393901;28;20026;-56
2023/03/28 13:44:23;;;;;;;3.85;1.83;;;;;;;;;;10408986;28;20164;-56
2023/03/28 13:49:49;;;;;;;1.35;1.00;;;;;;;;;;10394418;28;20064;-52
2023/03/28 13:54:53;;;;;;;3.97;1.30;;;;;;;;;;10371515;28;20041;-51
2023/03/28 14:00:01;;;;;;;2.47;1.20;;;;;;;;;;10406774;28;20124;-53
2023/03/28 14:05:23;;;;;;;2.20;1.30;;;;;;;;;;10407385;28;20076;-55
2023/03/28 14:10:33;;;;;;;1.85;1.00;;;;;;;;;;10387787;28;20625;-53
2023/03/28 14:15:40;;;;;;;3.53;1.23;;;;;;;;;;10379311;28;20022;-55
2023/03/28 14:20:45;;;;;;;2.78;1.15;;;;;;;;;;10392422;28;20040;-55
2023/03/28 14:25:45;;;;;;;1.58;1.02;;;;;;;;;;10368473;28;20036;-57
2023/03/28 14:30:46;;;;;;;1.20;1.10;;;;;;;;;;10392467;28;20029;-54
2023/03/28 14:36:02;;;;;;;2.80;1.30;;;;;;;;;;10395911;28;20029;-57
2023/03/28 14:41:20;;;;;;;1.95;1.33;;;;;;;;;;10401508;28;20116;-54
2023/03/28 14:46:24;;;;;;;3.00;1.15;;;;;;;;;;10408564;28;20177;-49
2023/03/28 14:51:27;;;;;;;2.08;1.10;;;;;;;;;;10408417;23;20091;-57
2023/03/28 14:56:30;;;;;;;2.58;1.25;;;;;;;;;;10458528;28;20033;-63
2023/03/28 15:01:33;;;;;;;1.58;1.27;;;;;;;;;;10441038;28;20075;-63
2023/03/28 15:06:35;;;;;;;2.00;1.30;;;;;;;;;;10458282;28;20037;-61
2023/03/28 15:11:40;;;;;;;7.47;1.30;;;;;;;;;;10451596;28;20053;-58
2023/03/28 15:16:43;;;;;;;0.90;0.90;;;;;;;;;;10430724;28;20475;-58
2023/03/28 15:21:54;;;;;;;2.13;1.35;;;;;;;;;;10452325;28;20053;-62
2023/03/28 15:27:00;;;;;;;6.00;1.20;;;;;;;;;;10451997;28;20101;-62
2023/03/28 15:32:06;;;;;;;4.65;1.20;;;;;;;;;;10433013;28;20033;-62
2023/03/28 15:37:23;;;;;;;1.33;1.23;;;;;;;;;;10432936;28;20025;-60
2023/03/28 15:42:33;;;;;;;2.78;1.00;;;;;;;;;;10450437;28;20025;-62
2023/03/28 15:47:34;;;;;;;3.35;1.08;;;;;;;;;;10448191;28;20021;-59
2023/03/28 15:52:35;;;;;;;1.65;1.42;;;;;;;;;;10448880;28;20466;-64
2023/03/28 15:57:36;;;;;;;1.73;1.38;;;;;;;;;;10451051;28;20032;-64
2023/03/28 16:02:39;;;;;;;3.63;1.40;;;;;;;;;;10453410;28;20025;-59
2023/03/28 16:07:44;;;;;;;2.58;1.33;;;;;;;;;;10425468;28;20024;-59
2023/03/28 16:12:46;;;;;;;3.42;1.05;;;;;;;;;;10448954;28;20029;-58
2023/03/28 16:17:48;;;;;;;2.72;1.30;;;;;;;;;;10445166;28;20079;-58
2023/03/28 16:22:49;;;;;;;3.95;1.10;;;;;;;;;;10448180;28;20052;-58
2023/03/28 16:27:50;;;;;;;5.00;1.20;;;;;;;;;;10449023;28;20017;-59
2023/03/28 16:32:51;;;;;;;2.03;1.17;;;;;;;;;;10430566;28;20033;-58
2023/03/28 16:37:52;;;;;;;3.75;1.48;;;;;;;;;;10428295;28;20021;-58
2023/03/28 16:42:53;;;;;;;2.00;1.45;;;;;;;;;;10446862;28;20021;-58
2023/03/28 16:47:54;;;;;;;3.55;1.10;;;;;;;;;;10441612;28;20427;-60
2023/03/28 16:52:55;;;;;;;2.03;1.40;;;;;;;;;;10430880;28;20051;-58
2023/03/28 16:57:56;;;;;;;1.55;1.10;;;;;;;;;;10440844;28;20039;-58
2023/03/28 17:02:57;;;;;;;1.55;1.27;;;;;;;;;;10448571;28;20107;-58
2023/03/28 17:07:58;;;;;;;8.65;1.67;;;;;;;;;;10430273;28;20430;-56
2023/03/28 17:13:01;;;;;;;5.15;1.98;;;;;;;;;;10432655;28;20462;-58
2023/03/28 17:18:04;;;;;;;6.25;1.45;;;;;;;;;;10448136;28;20040;-57
2023/03/28 17:23:05;;;;;;;5.43;1.92;;;;;;;;;;10446955;28;20036;-57
2023/03/28 17:28:05;;;;;;;3.92;1.70;;;;;;;;;;10452277;28;20033;-57
2023/03/28 17:33:06;;;;;;;10.55;1.50;;;;;;;;;;10459764;28;20067;-57
2023/03/28 17:38:07;;;;;;;3.40;1.42;;;;;;;;;;10448796;28;20040;-57
2023/03/28 17:43:10;;;;;;;2.60;1.40;;;;;;;;;;10451073;28;20291;-56
2023/03/28 17:48:11;;;;;;;2.60;1.60;;;;;;;;;;10449721;28;20033;-60
2023/03/28 17:53:12;;;;;;;2.97;1.52;;;;;;;;;;10451876;28;20045;-57
2023/03/28 17:58:14;;;;;;;2.35;1.42;;;;;;;;;;10448061;28;20033;-65
2023/03/28 18:03:15;;;;;;;1.73;1.27;;;;;;;;;;10448820;28;20033;-57
2023/03/28 18:08:16;;;;;;;5.50;1.75;;;;;;;;;;10439915;28;20128;-58
2023/03/28 18:13:17;;;;;;;3.53;1.45;;;;;;;;;;10435858;28;20037;-59
2023/03/28 18:18:17;;;;;;;2.50;1.48;;;;;;;;;;10450221;28;20025;-57
2023/03/28 18:23:19;;;;;;;8.88;1.65;;;;;;;;;;10451002;28;20040;-59
2023/03/28 18:28:22;;;;;;;4.88;1.48;;;;;;;;;;10449301;28;20033;-61
2023/03/28 18:33:22;;;;;;;4.43;1.48;;;;;;;;;;10449327;28;20388;-59
2023/03/28 18:38:23;;;;;;;5.82;1.30;;;;;;;;;;10446357;28;20036;-58
2023/03/28 18:43:24;;;;;;;6.90;1.88;;;;;;;;;;10449095;28;20040;-63
2023/03/28 18:48:27;;;;;;;10.75;2.25;;;;;;;;;;10439692;28;20032;-57
2023/03/28 18:53:29;;;;;;;9.52;1.85;;;;;;;;;;10447072;28;20409;-58
2023/03/28 18:58:30;;;;;;;11.77;2.00;;;;;;;;;;10450916;28;20392;-59
2023/03/28 19:03:39;;;;;;;5.88;2.00;;;;;;;;;;10450873;28;20037;-58
2023/03/28 19:08:40;;;;;;;7.05;1.90;;;;;;;;;;10450738;28;20464;-60
2023/03/28 19:13:41;;;;;;;8.15;1.73;;;;;;;;;;10443756;28;20375;-58
2023/03/28 19:18:44;;;;;;;5.20;1.92;;;;;;;;;;10443887;28;20024;-57
2023/03/28 19:23:47;;;;;;;11.15;2.63;;;;;;;;;;10448083;28;20025;-60
2023/03/28 19:28:49;;;;;;;6.10;2.38;;;;;;;;;;10446114;28;20044;-59
2023/03/28 19:33:51;;;;;;;6.93;1.80;;;;;;;;;;10437360;28;20395;-59
2023/03/28 19:38:52;;;;;;;3.90;1.90;;;;;;;;;;10450312;28;20025;-59
2023/03/28 19:43:54;;;;;;;4.47;1.90;;;;;;;;;;10444384;28;20025;-60
2023/03/28 19:48:56;;;;;;;15.85;2.15;;;;;;;;;;10445997;28;20096;-65
2023/03/28 19:53:57;;;;;;;2.90;1.67;;;;;;;;;;10448681;28;20528;-59
2023/03/28 19:58:58;;;;;;;8.00;1.90;;;;;;;;;;10437056;28;20045;-59
2023/03/28 20:03:59;;;;;;;6.13;2.55;;;;;;;;;;10443536;28;20037;-59
2023/03/28 20:09:00;;;;;;;6.10;2.00;;;;;;;;;;10449657;28;20519;-59
2023/03/28 20:14:01;;;;;;;7.20;2.33;;;;;;;;;;10446581;28;20525;-59
2023/03/28 20:19:02;;;;;;;2.97;2.08;;;;;;;;;;10420942;28;20040;-59
2023/03/28 20:24:03;;;;;;;7.63;2.13;;;;;;;;;;10439402;28;20388;-64
2023/03/28 20:29:09;;;;;;;3.70;2.03;;;;;;;;;;10448847;28;20037;-62
2023/03/28 20:34:10;;;;;;;3.42;2.20;;;;;;;;;;10439699;28;20029;-60
2023/03/28 20:39:13;;;;;;;6.78;2.35;;;;;;;;;;10448557;28;20550;-59
2023/03/28 20:44:18;;;;;;;6.20;1.92;;;;;;;;;;10447123;28;20029;-59
2023/03/28 20:49:20;;;;;;;6.95;2.05;;;;;;;;;;10442467;28;20040;-59
2023/03/28 20:54:23;;;;;;;3.90;2.30;;;;;;;;;;10447767;28;20060;-61
2023/03/28 20:59:26;;;;;;;6.22;2.08;;;;;;;;;;10451295;28;20128;-63
2023/03/28 21:04:26;;;;;;;3.88;2.10;;;;;;;;;;10456927;28;20037;-60
2023/03/28 21:09:28;;;;;;;4.15;1.90;;;;;;;;;;10452635;28;20025;-59
2023/03/28 21:14:29;;;;;;;2.72;1.80;;;;;;;;;;10455593;28;20411;-63
2023/03/28 21:19:29;;;;;;;5.35;2.10;;;;;;;;;;10452575;28;20036;-60
2023/03/28 21:24:30;;;;;;;2.53;1.90;;;;;;;;;;10439010;28;20053;-60
2023/03/28 21:29:31;;;;;;;3.53;2.00;;;;;;;;;;10454023;28;20052;-65
2023/03/28 21:34:33;;;;;;;4.43;2.55;;;;;;;;;;10448962;28;20029;-59
2023/03/28 21:39:33;;;;;;;4.57;2.33;;;;;;;;;;10429028;28;20025;-59
2023/03/28 21:44:34;;;;;;;5.82;2.05;;;;;;;;;;10451329;28;20052;-58
2023/03/28 21:49:36;;;;;;;4.93;2.15;;;;;;;;;;10451277;28;20033;-59
2023/03/28 21:54:37;;;;;;;6.82;2.30;;;;;;;;;;10452195;28;20522;-59
2023/03/28 21:59:37;;;;;;;6.03;2.22;;;;;;;;;;10452798;28;20036;-59
2023/03/28 22:04:39;;;;;;;5.00;2.15;;;;;;;;;;10449818;28;20020;-59
2023/03/28 22:09:40;;;;;;;4.85;2.40;;;;;;;;;;10452328;28;20071;-59
2023/03/28 22:14:41;;;;;;;9.20;2.55;;;;;;;;;;10440158;28;20021;-59
2023/03/28 22:19:41;;;;;;;3.60;2.55;;;;;;;;;;10443067;28;20040;-59
2023/03/28 22:24:43;;;;;;;3.38;2.20;;;;;;;;;;10447377;28;20517;-58
2023/03/28 22:29:43;;;;;;;6.50;2.90;;;;;;;;;;10443327;28;20032;-49
2023/03/28 22:34:44;;;;;;;6.35;2.88;;;;;;;;;;10451276;28;20031;-48
2023/03/28 22:39:45;;;;;;;11.18;2.80;;;;;;;;;;10452676;28;20032;-48
2023/03/28 22:44:47;;;;;;;9.88;2.83;;;;;;;;;;10451634;28;20399;-50
2023/03/28 22:49:47;;;;;;;6.68;2.78;;;;;;;;;;10451836;28;20083;-51
2023/03/28 22:54:48;;;;;;;5.72;2.70;;;;;;;;;;10451935;28;20049;-51
2023/03/28 22:59:51;;;;;;;5.43;2.80;;;;;;;;;;10452252;28;20045;-49
2023/03/28 23:04:52;;;;;;;7.40;2.88;;;;;;;;;;10452755;28;20036;-49
2023/03/28 23:09:53;;;;;;;5.63;2.65;;;;;;;;;;10451710;28;20044;-49
2023/03/28 23:14:55;;;;;;;3.78;2.58;;;;;;;;;;10441781;28;20022;-49
2023/03/28 23:19:55;;;;;;;5.40;2.60;;;;;;;;;;10437304;28;20036;-49
2023/03/28 23:24:56;;;;;;;4.80;2.65;;;;;;;;;;10450084;28;20029;-50
2023/03/28 23:29:56;;;;;;;3.10;2.40;;;;;;;;;;10441933;28;20021;-50
2023/03/28 23:34:57;;;;;;;4.68;2.92;;;;;;;;;;10450182;28;20021;-50
2023/03/28 23:39:58;;;;;;;3.95;2.83;;;;;;;;;;10449895;28;20032;-49
2023/03/28 23:44:58;;;;;;;7.20;2.70;;;;;;;;;;10451246;28;20028;-50
2023/03/28 23:49:59;;;;;;;5.00;2.63;;;;;;;;;;10450322;28;20028;-48
2023/03/28 23:55:00;;;;;;;5.03;2.42;;;;;;;;;;10449358;28;20385;-50
